sensor_id;sensor_type;location;lat;lon;timestamp;pressure;altitude;pressure_sealevel;temperature;humidity
70370;BME280;57790;51.356;-2.906;2023-04-10T00:01:59;101456.09;;;12.91;100.00
70370;BME280;57790;51.356;-2.906;2023-04-10T00:05:00;101448.78;;;12.93;100.00
70370;BME280;57790;51.356;-2.906;2023-04-10T00:08:00;101452.44;;;12.92;100.00
70370;BME280;57790;51.356;-2.906;2023-04-10T00:11:02;101441.78;;;12.92;100.00
70370;BME280;57790;51.356;-2.906;2023-04-10T00:14:03;101436.13;;;12.95;100.00
70370;BME280;57790;51.356;-2.906;2023-04-10T00:17:03;101440.28;;;12.97;100.00
70370;BME280;57790;51.356;-2.906;2023-04-10T00:20:04;101443.13;;;12.96;100.00
70370;BME280;57790;51.356;-2.906;2023-04-10T00:23:05;101443.13;;;12.96;100.00
70370;BME280;57790;51.356;-2.906;2023-04-10T00:26:05;101432.47;;;12.96;100.00
70370;BME280;57790;51.356;-2.906;2023-04-10T00:29:06;101435.63;;;12.91;100.00
70370;BME280;57790;51.356;-2.906;2023-04-10T00:32:07;101422.78;;;12.87;100.00
70370;BME280;57790;51.356;-2.906;2023-04-10T00:35:08;101429.31;;;12.92;100.00
70370;BME280;57790;51.356;-2.906;2023-04-10T00:38:08;101418.16;;;12.89;100.00
70370;BME280;57790;51.356;-2.906;2023-04-10T00:41:09;101415.84;;;12.94;100.00
70370;BME280;57790;51.356;-2.906;2023-04-10T00:44:10;101413.50;;;12.91;100.00
70370;BME280;57790;51.356;-2.906;2023-04-10T00:47:11;101393.03;;;12.91;100.00
70370;BME280;57790;51.356;-2.906;2023-04-10T00:50:12;101383.22;;;12.92;100.00
70370;BME280;57790;51.356;-2.906;2023-04-10T00:53:12;101373.59;;;12.91;100.00
70370;BME280;57790;51.356;-2.906;2023-04-10T00:56:13;101380.56;;;12.92;100.00
70370;BME280;57790;51.356;-2.906;2023-04-10T00:59:14;101377.41;;;12.88;100.00
70370;BME280;57790;51.356;-2.906;2023-04-10T01:02:15;101373.59;;;12.91;100.00
70370;BME280;57790;51.356;-2.906;2023-04-10T01:05:15;101350.47;;;12.91;100.00
70370;BME280;57790;51.356;-2.906;2023-04-10T01:12:23;101356.94;;;12.89;100.00
70370;BME280;57790;51.356;-2.906;2023-04-10T01:14:57;101341.97;;;12.88;100.00
70370;BME280;57790;51.356;-2.906;2023-04-10T01:18:12;101322.31;;;12.80;100.00
70370;BME280;57790;51.356;-2.906;2023-04-10T01:21:16;101318.34;;;12.85;100.00
70370;BME280;57790;51.356;-2.906;2023-04-10T01:27:45;101306.84;;;12.84;100.00
70370;BME280;57790;51.356;-2.906;2023-04-10T01:30:56;101312.19;;;12.84;100.00
70370;BME280;57790;51.356;-2.906;2023-04-10T01:34:03;101308.69;;;12.84;100.00
70370;BME280;57790;51.356;-2.906;2023-04-10T01:37:08;101313.84;;;12.85;100.00
70370;BME280;57790;51.356;-2.906;2023-04-10T01:40:14;101301.88;;;12.81;100.00
70370;BME280;57790;51.356;-2.906;2023-04-10T01:43:15;101292.56;;;12.77;100.00
70370;BME280;57790;51.356;-2.906;2023-04-10T01:46:18;101291.41;;;12.79;100.00
70370;BME280;57790;51.356;-2.906;2023-04-10T01:49:20;101287.72;;;12.80;100.00
70370;BME280;57790;51.356;-2.906;2023-04-10T01:52:22;101286.72;;;12.81;100.00
70370;BME280;57790;51.356;-2.906;2023-04-10T01:55:24;101286.56;;;12.83;100.00
70370;BME280;57790;51.356;-2.906;2023-04-10T01:58:25;101290.22;;;12.82;100.00
70370;BME280;57790;51.356;-2.906;2023-04-10T02:01:26;101295.56;;;12.82;100.00
70370;BME280;57790;51.356;-2.906;2023-04-10T02:04:27;101292.22;;;12.80;100.00
70370;BME280;57790;51.356;-2.906;2023-04-10T02:07:43;101287.91;;;12.79;100.00
70370;BME280;57790;51.356;-2.906;2023-04-10T02:11:14;101290.56;;;12.79;100.00
70370;BME280;57790;51.356;-2.906;2023-04-10T02:14:19;101284.91;;;12.82;100.00
70370;BME280;57790;51.356;-2.906;2023-04-10T02:17:25;101291.22;;;12.81;100.00
70370;BME280;57790;51.356;-2.906;2023-04-10T02:20:27;101286.41;;;12.85;100.00
70370;BME280;57790;51.356;-2.906;2023-04-10T02:23:28;101292.06;;;12.81;100.00
70370;BME280;57790;51.356;-2.906;2023-04-10T02:26:28;101285.25;;;12.79;100.00
70370;BME280;57790;51.356;-2.906;2023-04-10T02:29:29;101282.56;;;12.79;100.00
70370;BME280;57790;51.356;-2.906;2023-04-10T02:32:30;101276.25;;;12.80;100.00
70370;BME280;57790;51.356;-2.906;2023-04-10T02:35:31;101276.44;;;12.78;100.00
70370;BME280;57790;51.356;-2.906;2023-04-10T02:38:32;101265.63;;;12.80;100.00
70370;BME280;57790;51.356;-2.906;2023-04-10T02:41:32;101253.97;;;12.81;100.00
70370;BME280;57790;51.356;-2.906;2023-04-10T02:44:33;101256.47;;;12.82;100.00
70370;BME280;57790;51.356;-2.906;2023-04-10T02:47:33;101251.31;;;12.81;100.00
70370;BME280;57790;51.356;-2.906;2023-04-10T02:50:33;101246.16;;;12.79;100.00
70370;BME280;57790;51.356;-2.906;2023-04-10T02:53:34;101235.00;;;12.84;100.00
70370;BME280;57790;51.356;-2.906;2023-04-10T02:56:34;101234.19;;;12.84;100.00
70370;BME280;57790;51.356;-2.906;2023-04-10T02:59:35;101226.19;;;12.84;100.00
70370;BME280;57790;51.356;-2.906;2023-04-10T03:02:36;101228.69;;;12.85;100.00
70370;BME280;57790;51.356;-2.906;2023-04-10T03:05:36;101218.88;;;12.86;100.00
70370;BME280;57790;51.356;-2.906;2023-04-10T03:08:37;101208.75;;;12.81;100.00
70370;BME280;57790;51.356;-2.906;2023-04-10T03:11:37;101200.75;;;12.81;100.00
70370;BME280;57790;51.356;-2.906;2023-04-10T03:14:37;101196.09;;;12.83;100.00
70370;BME280;57790;51.356;-2.906;2023-04-10T03:17:38;101198.09;;;12.81;100.00
70370;BME280;57790;51.356;-2.906;2023-04-10T03:20:39;101186.63;;;12.80;100.00
70370;BME280;57790;51.356;-2.906;2023-04-10T03:23:39;101187.13;;;12.76;100.00
70370;BME280;57790;51.356;-2.906;2023-04-10T03:26:39;101187.13;;;12.76;100.00
70370;BME280;57790;51.356;-2.906;2023-04-10T03:29:40;101180.66;;;12.78;100.00
70370;BME280;57790;51.356;-2.906;2023-04-10T03:32:41;101170.34;;;12.75;100.00
70370;BME280;57790;51.356;-2.906;2023-04-10T03:35:42;101162.53;;;12.74;100.00
70370;BME280;57790;51.356;-2.906;2023-04-10T03:38:42;101159.34;;;12.78;100.00
70370;BME280;57790;51.356;-2.906;2023-04-10T03:41:43;101157.03;;;12.75;100.00
70370;BME280;57790;51.356;-2.906;2023-04-10T03:44:43;101153.84;;;12.72;100.00
70370;BME280;57790;51.356;-2.906;2023-04-10T03:47:43;101154.03;;;12.70;100.00
70370;BME280;57790;51.356;-2.906;2023-04-10T03:50:44;101148.03;;;12.68;100.00
70370;BME280;57790;51.356;-2.906;2023-04-10T03:53:44;101150.69;;;12.68;100.00
70370;BME280;57790;51.356;-2.906;2023-04-10T03:56:45;101147.22;;;12.68;100.00
70370;BME280;57790;51.356;-2.906;2023-04-10T03:59:46;101147.38;;;12.66;100.00
70370;BME280;57790;51.356;-2.906;2023-04-10T04:02:47;101148.22;;;12.67;100.00
70370;BME280;57790;51.356;-2.906;2023-04-10T04:05:49;101136.25;;;12.63;100.00
70370;BME280;57790;51.356;-2.906;2023-04-10T04:08:51;101128.09;;;12.64;100.00
70370;BME280;57790;51.356;-2.906;2023-04-10T04:11:51;101127.09;;;12.65;100.00
70370;BME280;57790;51.356;-2.906;2023-04-10T04:14:52;101123.28;;;12.60;100.00
70370;BME280;57790;51.356;-2.906;2023-04-10T04:17:52;101113.66;;;12.59;100.00
70370;BME280;57790;51.356;-2.906;2023-04-10T04:20:53;101105.97;;;12.56;100.00
70370;BME280;57790;51.356;-2.906;2023-04-10T04:23:53;101106.16;;;12.54;100.00
70370;BME280;57790;51.356;-2.906;2023-04-10T04:26:54;101098.66;;;12.58;100.00
70370;BME280;57790;51.356;-2.906;2023-04-10T04:29:55;101101.84;;;12.53;100.00
70370;BME280;57790;51.356;-2.906;2023-04-10T04:32:56;101092.34;;;12.50;100.00
70370;BME280;57790;51.356;-2.906;2023-04-10T04:35:56;101086.22;;;12.50;100.00
70370;BME280;57790;51.356;-2.906;2023-04-10T04:38:57;101084.56;;;12.49;100.00
70370;BME280;57790;51.356;-2.906;2023-04-10T04:41:57;101078.06;;;12.43;100.00
70370;BME280;57790;51.356;-2.906;2023-04-10T04:44:57;101072.91;;;12.42;100.00
70370;BME280;57790;51.356;-2.906;2023-04-10T04:47:58;101056.63;;;12.37;100.00
70370;BME280;57790;51.356;-2.906;2023-04-10T04:50:58;101056.78;;;12.35;100.00
70370;BME280;57790;51.356;-2.906;2023-04-10T04:53:58;101054.13;;;12.27;100.00
70370;BME280;57790;51.356;-2.906;2023-04-10T04:56:59;101060.44;;;12.34;100.00
70370;BME280;57790;51.356;-2.906;2023-04-10T05:00:00;101050.81;;;12.33;100.00
70370;BME280;57790;51.356;-2.906;2023-04-10T05:03:01;101050.00;;;12.33;100.00
70370;BME280;57790;51.356;-2.906;2023-04-10T05:06:01;101054.66;;;12.31;100.00
70370;BME280;57790;51.356;-2.906;2023-04-10T05:09:02;101063.59;;;12.38;100.00
70370;BME280;57790;51.356;-2.906;2023-04-10T05:12:02;101058.13;;;12.31;100.00
70370;BME280;57790;51.356;-2.906;2023-04-10T05:15:03;101045.00;;;12.30;100.00
70370;BME280;57790;51.356;-2.906;2023-04-10T05:18:04;101049.16;;;12.32;100.00
70370;BME280;57790;51.356;-2.906;2023-04-10T05:21:04;101043.19;;;12.30;100.00
70370;BME280;57790;51.356;-2.906;2023-04-10T05:24:05;101048.34;;;12.32;100.00
70370;BME280;57790;51.356;-2.906;2023-04-10T05:27:05;101034.03;;;12.33;100.00
70370;BME280;57790;51.356;-2.906;2023-04-10T05:30:06;101041.69;;;12.36;100.00
70370;BME280;57790;51.356;-2.906;2023-04-10T05:33:07;101043.34;;;12.37;100.00
70370;BME280;57790;51.356;-2.906;2023-04-10T05:36:07;101041.69;;;12.36;100.00
70370;BME280;57790;51.356;-2.906;2023-04-10T05:39:08;101035.53;;;12.35;100.00
70370;BME280;57790;51.356;-2.906;2023-04-10T05:42:08;101030.03;;;12.37;100.00
70370;BME280;57790;51.356;-2.906;2023-04-10T05:45:09;101040.00;;;12.35;100.00
70370;BME280;57790;51.356;-2.906;2023-04-10T05:48:10;101039.00;;;12.36;100.00
70370;BME280;57790;51.356;-2.906;2023-04-10T05:51:10;101029.03;;;12.38;100.00
70370;BME280;57790;51.356;-2.906;2023-04-10T05:54:10;101032.34;;;12.40;100.00
70370;BME280;57790;51.356;-2.906;2023-04-10T05:57:11;101032.03;;;12.43;100.00
70370;BME280;57790;51.356;-2.906;2023-04-10T06:00:12;101029.34;;;12.43;100.00
70370;BME280;57790;51.356;-2.906;2023-04-10T06:03:14;101024.22;;;12.41;100.00
70370;BME280;57790;51.356;-2.906;2023-04-10T06:06:14;101020.38;;;12.44;100.00
70370;BME280;57790;51.356;-2.906;2023-04-10T06:09:15;101030.06;;;12.45;100.00
70370;BME280;57790;51.356;-2.906;2023-04-10T06:12:15;101033.38;;;12.47;100.00
70370;BME280;57790;51.356;-2.906;2023-04-10T06:15:16;101025.38;;;12.47;100.00
70370;BME280;57790;51.356;-2.906;2023-04-10T06:18:16;101015.75;;;12.46;100.00
70370;BME280;57790;51.356;-2.906;2023-04-10T06:21:17;101018.25;;;12.47;100.00
70370;BME280;57790;51.356;-2.906;2023-04-10T06:24:17;101020.72;;;12.49;100.00
70370;BME280;57790;51.356;-2.906;2023-04-10T06:27:17;101025.22;;;12.48;100.00
70370;BME280;57790;51.356;-2.906;2023-04-10T06:30:18;101018.56;;;12.52;100.00
70370;BME280;57790;51.356;-2.906;2023-04-10T06:33:19;101027.03;;;12.56;100.00
70370;BME280;57790;51.356;-2.906;2023-04-10T06:36:20;101013.91;;;12.55;100.00
70370;BME280;57790;51.356;-2.906;2023-04-10T06:39:20;101007.41;;;12.57;100.00
70370;BME280;57790;51.356;-2.906;2023-04-10T06:42:21;101002.09;;;12.57;100.00
70370;BME280;57790;51.356;-2.906;2023-04-10T06:45:21;101003.75;;;12.58;100.00
70370;BME280;57790;51.356;-2.906;2023-04-10T06:48:22;100995.94;;;12.57;100.00
70370;BME280;57790;51.356;-2.906;2023-04-10T06:51:22;100996.75;;;12.57;100.00
70370;BME280;57790;51.356;-2.906;2023-04-10T06:54:23;100992.44;;;12.56;100.00
70370;BME280;57790;51.356;-2.906;2023-04-10T06:57:23;100978.97;;;12.58;100.00
70370;BME280;57790;51.356;-2.906;2023-04-10T07:00:23;100983.31;;;12.59;100.00
70370;BME280;57790;51.356;-2.906;2023-04-10T07:03:24;100985.31;;;12.57;100.00
70370;BME280;57790;51.356;-2.906;2023-04-10T07:06:25;100980.81;;;12.57;100.00
70370;BME280;57790;51.356;-2.906;2023-04-10T07:09:26;100978.97;;;12.58;100.00
70370;BME280;57790;51.356;-2.906;2023-04-10T07:12:28;100971.81;;;12.58;100.00
70370;BME280;57790;51.356;-2.906;2023-04-10T07:15:28;100972.69;;;12.59;100.00
70370;BME280;57790;51.356;-2.906;2023-04-10T07:18:28;100963.38;;;12.63;100.00
70370;BME280;57790;51.356;-2.906;2023-04-10T07:21:30;100962.53;;;12.62;100.00
70370;BME280;57790;51.356;-2.906;2023-04-10T07:24:32;100956.22;;;12.63;100.00
70370;BME280;57790;51.356;-2.906;2023-04-10T07:27:32;100957.88;;;12.64;100.00
70370;BME280;57790;51.356;-2.906;2023-04-10T07:30:33;100961.19;;;12.66;100.00
70370;BME280;57790;51.356;-2.906;2023-04-10T07:33:33;100962.66;;;12.69;100.00
70370;BME280;57790;51.356;-2.906;2023-04-10T07:36:37;100961.84;;;12.68;100.00
70370;BME280;57790;51.356;-2.906;2023-04-10T07:39:37;100955.69;;;12.68;100.00
70370;BME280;57790;51.356;-2.906;2023-04-10T07:42:38;100973.66;;;12.66;100.00
70370;BME280;57790;51.356;-2.906;2023-04-10T07:45:39;100963.84;;;12.66;100.00
70370;BME280;57790;51.356;-2.906;2023-04-10T07:48:40;100959.84;;;12.70;100.00
70370;BME280;57790;51.356;-2.906;2023-04-10T07:51:41;100967.81;;;12.70;100.00
70370;BME280;57790;51.356;-2.906;2023-04-10T07:54:41;100968.63;;;12.71;100.00
70370;BME280;57790;51.356;-2.906;2023-04-10T07:57:41;100972.13;;;12.71;100.00
70370;BME280;57790;51.356;-2.906;2023-04-10T08:00:42;100979.47;;;12.69;100.00
70370;BME280;57790;51.356;-2.906;2023-04-10T08:03:44;100974.63;;;12.73;100.00
70370;BME280;57790;51.356;-2.906;2023-04-10T08:06:45;100980.63;;;12.75;100.00
70370;BME280;57790;51.356;-2.906;2023-04-10T08:09:46;100985.13;;;12.74;100.00
70370;BME280;57790;51.356;-2.906;2023-04-10T08:12:46;100985.25;;;12.73;100.00
70370;BME280;57790;51.356;-2.906;2023-04-10T08:15:46;100976.44;;;12.72;100.00
70370;BME280;57790;51.356;-2.906;2023-04-10T08:18:47;100987.25;;;12.71;100.00
70370;BME280;57790;51.356;-2.906;2023-04-10T08:21:47;100988.78;;;12.73;100.00
70370;BME280;57790;51.356;-2.906;2023-04-10T08:24:48;100988.44;;;12.68;100.00
70370;BME280;57790;51.356;-2.906;2023-04-10T08:27:48;100976.97;;;12.68;100.00
70370;BME280;57790;51.356;-2.906;2023-04-10T08:30:48;100972.47;;;12.68;100.00
70370;BME280;57790;51.356;-2.906;2023-04-10T08:33:51;100979.47;;;12.69;100.00
70370;BME280;57790;51.356;-2.906;2023-04-10T08:36:56;100962.50;;;12.70;100.00
70370;BME280;57790;51.356;-2.906;2023-04-10T08:39:56;100960.66;;;12.71;100.00
70370;BME280;57790;51.356;-2.906;2023-04-10T08:42:57;100965.16;;;12.70;100.00
70370;BME280;57790;51.356;-2.906;2023-04-10T08:45:58;100970.66;;;12.69;100.00
70370;BME280;57790;51.356;-2.906;2023-04-10T08:49:03;100967.16;;;12.68;100.00
70370;BME280;57790;51.356;-2.906;2023-04-10T08:52:06;100963.97;;;12.73;100.00
70370;BME280;57790;51.356;-2.906;2023-04-10T08:55:07;100965.66;;;12.74;100.00
70370;BME280;57790;51.356;-2.906;2023-04-10T08:58:10;100954.84;;;12.75;100.00
70370;BME280;57790;51.356;-2.906;2023-04-10T09:01:13;100951.38;;;12.75;100.00
70370;BME280;57790;51.356;-2.906;2023-04-10T09:04:14;100941.72;;;12.74;100.00
70370;BME280;57790;51.356;-2.906;2023-04-10T09:07:17;100939.22;;;12.72;100.00
70370;BME280;57790;51.356;-2.906;2023-04-10T09:10:17;100933.75;;;12.74;100.00
70370;BME280;57790;51.356;-2.906;2023-04-10T09:13:37;100930.56;;;12.78;100.00
70370;BME280;57790;51.356;-2.906;2023-04-10T09:16:38;100933.22;;;12.78;100.00
70370;BME280;57790;51.356;-2.906;2023-04-10T09:19:39;100935.69;;;12.80;100.00
70370;BME280;57790;51.356;-2.906;2023-04-10T09:22:40;100939.19;;;12.80;100.00
70370;BME280;57790;51.356;-2.906;2023-04-10T09:25:40;100933.69;;;12.90;100.00
70370;BME280;57790;51.356;-2.906;2023-04-10T09:29:04;100939.19;;;12.89;100.00
70370;BME280;57790;51.356;-2.906;2023-04-10T09:32:04;100942.16;;;12.86;100.00
70370;BME280;57790;51.356;-2.906;2023-04-10T09:35:06;100942.31;;;12.92;100.00
70370;BME280;57790;51.356;-2.906;2023-04-10T09:38:18;100942.66;;;12.89;100.00
70370;BME280;57790;51.356;-2.906;2023-04-10T09:41:18;100944.78;;;12.94;100.00
70370;BME280;57790;51.356;-2.906;2023-04-10T09:44:30;100945.91;;;12.99;100.00
70370;BME280;57790;51.356;-2.906;2023-04-10T09:47:31;100947.75;;;12.99;100.00
70370;BME280;57790;51.356;-2.906;2023-04-10T09:50:39;100949.09;;;13.03;100.00
70370;BME280;57790;51.356;-2.906;2023-04-10T09:53:48;100953.72;;;13.01;100.00
70370;BME280;57790;51.356;-2.906;2023-04-10T09:56:51;100957.06;;;13.03;100.00
70370;BME280;57790;51.356;-2.906;2023-04-10T09:59:56;100955.38;;;13.10;100.00
70370;BME280;57790;51.356;-2.906;2023-04-10T10:02:58;100961.41;;;13.04;100.00
70370;BME280;57790;51.356;-2.906;2023-04-10T10:05:59;100948.25;;;13.02;100.00
70370;BME280;57790;51.356;-2.906;2023-04-10T10:09:03;100949.75;;;13.05;100.00
70370;BME280;57790;51.356;-2.906;2023-04-10T10:12:04;100949.38;;;13.08;100.00
70370;BME280;57790;51.356;-2.906;2023-04-10T10:21:37;100946.38;;;13.11;100.00
70370;BME280;57790;51.356;-2.906;2023-04-10T10:24:39;100952.88;;;13.08;100.00
70370;BME280;57790;51.356;-2.906;2023-04-10T10:27:45;100939.03;;;13.13;100.00
70370;BME280;57790;51.356;-2.906;2023-04-10T10:30:48;100942.34;;;13.15;100.00
70370;BME280;57790;51.356;-2.906;2023-04-10T10:33:52;100933.38;;;13.24;100.00
70370;BME280;57790;51.356;-2.906;2023-04-10T10:36:53;100932.91;;;13.21;100.00
70370;BME280;57790;51.356;-2.906;2023-04-10T10:40:19;100932.38;;;13.17;100.00
70370;BME280;57790;51.356;-2.906;2023-04-10T10:43:26;100928.91;;;13.17;100.00
70370;BME280;57790;51.356;-2.906;2023-04-10T10:46:39;100935.88;;;13.18;100.00
70370;BME280;57790;51.356;-2.906;2023-04-10T10:49:56;100921.53;;;13.27;100.00
70370;BME280;57790;51.356;-2.906;2023-04-10T10:52:56;100927.38;;;13.22;100.00
70370;BME280;57790;51.356;-2.906;2023-04-10T10:55:57;100931.06;;;13.21;100.00
70370;BME280;57790;51.356;-2.906;2023-04-10T10:58:57;100932.53;;;13.24;100.00
70370;BME280;57790;51.356;-2.906;2023-04-10T11:02:18;100943.16;;;13.32;100.00
70370;BME280;57790;51.356;-2.906;2023-04-10T11:05:57;100931.53;;;13.25;100.00
70370;BME280;57790;51.356;-2.906;2023-04-10T11:08:57;100937.66;;;13.33;100.00
70370;BME280;57790;51.356;-2.906;2023-04-10T11:11:58;100941.00;;;13.27;100.00
70370;BME280;57790;51.356;-2.906;2023-04-10T11:15:01;100938.16;;;13.29;100.00
70370;BME280;57790;51.356;-2.906;2023-04-10T11:18:02;100949.63;;;13.29;100.00
70370;BME280;57790;51.356;-2.906;2023-04-10T11:21:11;100956.63;;;13.30;100.00
70370;BME280;57790;51.356;-2.906;2023-04-10T11:24:11;100950.25;;;13.39;100.00
70370;BME280;57790;51.356;-2.906;2023-04-10T11:28:05;100946.75;;;13.39;100.00
70370;BME280;57790;51.356;-2.906;2023-04-10T11:31:19;100958.41;;;13.38;100.00
70370;BME280;57790;51.356;-2.906;2023-04-10T11:34:21;100962.69;;;13.47;100.00
70370;BME280;57790;51.356;-2.906;2023-04-10T11:37:22;100980.34;;;13.48;100.00
70370;BME280;57790;51.356;-2.906;2023-04-10T11:40:23;100965.47;;;13.54;100.00
70370;BME280;57790;51.356;-2.906;2023-04-10T11:43:23;100980.44;;;13.55;100.00
70370;BME280;57790;51.356;-2.906;2023-04-10T11:46:24;100987.25;;;13.57;100.00
70370;BME280;57790;51.356;-2.906;2023-04-10T11:49:29;100998.28;;;13.54;100.00
70370;BME280;57790;51.356;-2.906;2023-04-10T11:52:30;100990.94;;;13.56;100.00
70370;BME280;57790;51.356;-2.906;2023-04-10T11:55:37;100996.75;;;13.60;100.00
70370;BME280;57790;51.356;-2.906;2023-04-10T11:58:38;100996.41;;;13.63;100.00
70370;BME280;57790;51.356;-2.906;2023-04-10T12:01:39;100975.34;;;13.76;100.00
70370;BME280;57790;51.356;-2.906;2023-04-10T12:04:41;100987.84;;;13.76;100.00
70370;BME280;57790;51.356;-2.906;2023-04-10T12:07:41;100984.34;;;13.75;100.00
70370;BME280;57790;51.356;-2.906;2023-04-10T12:10:46;100985.03;;;13.69;100.00
70370;BME280;57790;51.356;-2.906;2023-04-10T12:13:47;101002.66;;;13.70;100.00
70370;BME280;57790;51.356;-2.906;2023-04-10T12:16:50;101004.97;;;13.73;100.00
70370;BME280;57790;51.356;-2.906;2023-04-10T12:19:51;100991.91;;;13.86;100.00
70370;BME280;57790;51.356;-2.906;2023-04-10T12:22:53;100997.53;;;13.91;100.00
70370;BME280;57790;51.356;-2.906;2023-04-10T12:26:12;100992.06;;;13.85;100.00
70370;BME280;57790;51.356;-2.906;2023-04-10T12:29:13;100995.06;;;13.90;100.00
70370;BME280;57790;51.356;-2.906;2023-04-10T12:32:13;101001.88;;;13.92;100.00
70370;BME280;57790;51.356;-2.906;2023-04-10T12:35:14;101004.72;;;13.91;100.00
70370;BME280;57790;51.356;-2.906;2023-04-10T12:38:14;101003.09;;;14.05;100.00
70370;BME280;57790;51.356;-2.906;2023-04-10T12:41:21;101012.22;;;14.10;100.00
70370;BME280;57790;51.356;-2.906;2023-04-10T12:44:22;101016.13;;;13.99;100.00
70370;BME280;57790;51.356;-2.906;2023-04-10T12:47:23;101024.34;;;14.13;100.00
70370;BME280;57790;51.356;-2.906;2023-04-10T12:50:24;101010.19;;;14.12;100.00
70370;BME280;57790;51.356;-2.906;2023-04-10T12:53:25;101015.72;;;14.11;100.00
70370;BME280;57790;51.356;-2.906;2023-04-10T12:56:26;101004.94;;;14.04;100.00
70370;BME280;57790;51.356;-2.906;2023-04-10T12:59:28;101008.06;;;14.08;100.00
70370;BME280;57790;51.356;-2.906;2023-04-10T13:02:28;101003.56;;;14.08;100.00
70370;BME280;57790;51.356;-2.906;2023-04-10T13:05:29;100992.19;;;14.14;100.00
70370;BME280;57790;51.356;-2.906;2023-04-10T13:08:29;100996.81;;;14.20;100.00
70370;BME280;57790;51.356;-2.906;2023-04-10T13:11:31;100997.63;;;14.21;100.00
70370;BME280;57790;51.356;-2.906;2023-04-10T13:14:32;100991.56;;;14.27;100.00
70370;BME280;57790;51.356;-2.906;2023-04-10T13:17:32;100996.53;;;14.30;100.00
70370;BME280;57790;51.356;-2.906;2023-04-10T13:20:37;100996.53;;;14.30;100.00
70370;BME280;57790;51.356;-2.906;2023-04-10T13:23:38;100995.38;;;14.33;100.00
70370;BME280;57790;51.356;-2.906;2023-04-10T13:26:38;100993.16;;;14.36;100.00
70370;BME280;57790;51.356;-2.906;2023-04-10T13:29:40;100997.50;;;14.37;100.00
70370;BME280;57790;51.356;-2.906;2023-04-10T13:32:41;100997.50;;;14.37;100.00
70370;BME280;57790;51.356;-2.906;2023-04-10T13:35:41;100997.09;;;14.48;100.00
70370;BME280;57790;51.356;-2.906;2023-04-10T13:38:41;100999.38;;;14.51;100.00
70370;BME280;57790;51.356;-2.906;2023-04-10T13:41:42;101001.03;;;14.52;100.00
70370;BME280;57790;51.356;-2.906;2023-04-10T13:44:42;101012.19;;;14.56;100.00
70370;BME280;57790;51.356;-2.906;2023-04-10T13:47:43;101002.69;;;14.53;100.00
70370;BME280;57790;51.356;-2.906;2023-04-10T13:50:43;101017.50;;;14.56;100.00
70370;BME280;57790;51.356;-2.906;2023-04-10T13:53:43;101012.09;;;14.49;100.00
70370;BME280;57790;51.356;-2.906;2023-04-10T13:56:44;101011.34;;;14.55;100.00
70370;BME280;57790;51.356;-2.906;2023-04-10T13:59:45;101012.47;;;14.61;100.00
70370;BME280;57790;51.356;-2.906;2023-04-10T14:02:45;101011.47;;;14.62;100.00
70370;BME280;57790;51.356;-2.906;2023-04-10T14:05:46;101034.28;;;14.65;100.00
70370;BME280;57790;51.356;-2.906;2023-04-10T14:08:47;101008.81;;;14.62;100.00
70370;BME280;57790;51.356;-2.906;2023-04-10T14:11:47;101024.25;;;14.67;100.00
70370;BME280;57790;51.356;-2.906;2023-04-10T14:14:48;101013.94;;;14.64;100.00
70370;BME280;57790;51.356;-2.906;2023-04-10T14:17:48;101033.47;;;14.64;100.00
70370;BME280;57790;51.356;-2.906;2023-04-10T14:20:48;101020.75;;;14.66;100.00
70370;BME280;57790;51.356;-2.906;2023-04-10T14:23:49;101013.66;;;14.73;100.00
70370;BME280;57790;51.356;-2.906;2023-04-10T14:26:49;101013.41;;;14.68;100.00
70370;BME280;57790;51.356;-2.906;2023-04-10T14:29:52;101018.09;;;14.66;100.00
70370;BME280;57790;51.356;-2.906;2023-04-10T14:32:53;101001.44;;;14.79;100.00
70370;BME280;57790;51.356;-2.906;2023-04-10T14:35:54;101016.16;;;14.75;100.00
70370;BME280;57790;51.356;-2.906;2023-04-10T14:38:54;101008.31;;;14.73;100.00
70370;BME280;57790;51.356;-2.906;2023-04-10T14:41:55;101012.00;;;14.87;100.00
70370;BME280;57790;51.356;-2.906;2023-04-10T14:44:56;101008.53;;;14.86;100.00
70370;BME280;57790;51.356;-2.906;2023-04-10T14:47:58;100996.19;;;14.85;100.00
70370;BME280;57790;51.356;-2.906;2023-04-10T14:50:58;101014.16;;;14.92;100.00
70370;BME280;57790;51.356;-2.906;2023-04-10T14:54:00;101007.81;;;14.93;100.00
70370;BME280;57790;51.356;-2.906;2023-04-10T14:57:00;101015.16;;;14.91;100.00
70370;BME280;57790;51.356;-2.906;2023-04-10T15:00:02;101006.69;;;15.02;100.00
70370;BME280;57790;51.356;-2.906;2023-04-10T15:03:02;101009.91;;;14.97;100.00
70370;BME280;57790;51.356;-2.906;2023-04-10T15:06:05;101005.84;;;15.01;100.00
70370;BME280;57790;51.356;-2.906;2023-04-10T15:09:06;100996.63;;;15.04;100.00
70370;BME280;57790;51.356;-2.906;2023-04-10T15:12:06;100995.09;;;15.09;100.00
70370;BME280;57790;51.356;-2.906;2023-04-10T15:15:07;101002.91;;;15.11;100.00
70370;BME280;57790;51.356;-2.906;2023-04-10T15:18:08;100999.16;;;15.05;100.00
70370;BME280;57790;51.356;-2.906;2023-04-10T15:21:08;100983.00;;;15.13;100.00
70370;BME280;57790;51.356;-2.906;2023-04-10T15:24:08;100973.09;;;15.07;100.00
70370;BME280;57790;51.356;-2.906;2023-04-10T15:27:09;100995.53;;;15.13;100.00
70370;BME280;57790;51.356;-2.906;2023-04-10T15:30:10;100997.00;;;15.15;100.00
70370;BME280;57790;51.356;-2.906;2023-04-10T15:33:11;101003.06;;;15.24;100.00
70370;BME280;57790;51.356;-2.906;2023-04-10T15:36:11;100985.31;;;15.16;100.00
70370;BME280;57790;51.356;-2.906;2023-04-10T15:39:11;100990.28;;;15.20;100.00
70370;BME280;57790;51.356;-2.906;2023-04-10T15:42:12;100975.72;;;15.22;100.00